sensor_id;sensor_type;location;lat;lon;timestamp;temperature;humidity
11009;DHT22;5557;51.670;7.788;2023-02-28T00:01:27;0.50;1.00
11009;DHT22;5557;51.670;7.788;2023-02-28T00:03:55;0.60;1.00
11009;DHT22;5557;51.670;7.788;2023-02-28T00:06:22;0.50;1.00
11009;DHT22;5557;51.670;7.788;2023-02-28T00:08:50;0.50;1.00
11009;DHT22;5557;51.670;7.788;2023-02-28T00:11:17;0.40;1.00
11009;DHT22;5557;51.670;7.788;2023-02-28T00:13:46;0.30;1.00
11009;DHT22;5557;51.670;7.788;2023-02-28T00:16:19;0.40;1.00
11009;DHT22;5557;51.670;7.788;2023-02-28T00:18:46;0.40;1.00
11009;DHT22;5557;51.670;7.788;2023-02-28T00:21:18;0.30;1.00
11009;DHT22;5557;51.670;7.788;2023-02-28T00:23:45;0.20;1.00
11009;DHT22;5557;51.670;7.788;2023-02-28T00:26:13;0.10;1.00
11009;DHT22;5557;51.670;7.788;2023-02-28T00:28:40;0.10;1.00
11009;DHT22;5557;51.670;7.788;2023-02-28T00:31:06;0.10;1.00
11009;DHT22;5557;51.670;7.788;2023-02-28T00:33:33;0.00;1.00
11009;DHT22;5557;51.670;7.788;2023-02-28T00:36:05;0.10;1.00
11009;DHT22;5557;51.670;7.788;2023-02-28T00:38:32;0.10;1.00
11009;DHT22;5557;51.670;7.788;2023-02-28T00:40:59;0.10;1.00
11009;DHT22;5557;51.670;7.788;2023-02-28T00:43:36;0.00;1.00
11009;DHT22;5557;51.670;7.788;2023-02-28T00:46:03;-0.10;1.00
11009;DHT22;5557;51.670;7.788;2023-02-28T00:48:31;-0.10;1.00
11009;DHT22;5557;51.670;7.788;2023-02-28T00:50:59;-0.10;1.00
11009;DHT22;5557;51.670;7.788;2023-02-28T00:53:26;-0.20;1.00
11009;DHT22;5557;51.670;7.788;2023-02-28T00:55:53;-0.30;1.00
11009;DHT22;5557;51.670;7.788;2023-02-28T00:58:20;-0.30;1.00
11009;DHT22;5557;51.670;7.788;2023-02-28T01:00:47;-0.40;1.00
11009;DHT22;5557;51.670;7.788;2023-02-28T01:03:18;-0.50;1.00
11009;DHT22;5557;51.670;7.788;2023-02-28T01:05:46;-0.50;1.00
11009;DHT22;5557;51.670;7.788;2023-02-28T01:08:14;-0.50;1.00
11009;DHT22;5557;51.670;7.788;2023-02-28T01:10:41;-0.60;1.00
11009;DHT22;5557;51.670;7.788;2023-02-28T01:13:08;-0.50;1.00
11009;DHT22;5557;51.670;7.788;2023-02-28T01:15:35;-0.60;1.00
11009;DHT22;5557;51.670;7.788;2023-02-28T01:18:02;-0.60;1.00
11009;DHT22;5557;51.670;7.788;2023-02-28T01:20:29;-0.70;1.00
11009;DHT22;5557;51.670;7.788;2023-02-28T01:22:56;-0.90;1.00
11009;DHT22;5557;51.670;7.788;2023-02-28T01:25:23;-1.00;1.00
11009;DHT22;5557;51.670;7.788;2023-02-28T01:27:50;-1.10;1.00
11009;DHT22;5557;51.670;7.788;2023-02-28T01:30:17;-1.10;1.00
11009;DHT22;5557;51.670;7.788;2023-02-28T01:32:44;-1.20;1.00
11009;DHT22;5557;51.670;7.788;2023-02-28T01:35:11;-1.20;1.00
11009;DHT22;5557;51.670;7.788;2023-02-28T01:37:38;-1.30;1.00
11009;DHT22;5557;51.670;7.788;2023-02-28T01:40:06;-1.40;1.00
11009;DHT22;5557;51.670;7.788;2023-02-28T01:42:33;-1.60;1.50
11009;DHT22;5557;51.670;7.788;2023-02-28T01:45:23;-1.70;3.50
11009;DHT22;5557;51.670;7.788;2023-02-28T01:47:55;-1.80;6.50
11009;DHT22;5557;51.670;7.788;2023-02-28T01:50:27;-1.80;8.00
11009;DHT22;5557;51.670;7.788;2023-02-28T01:52:59;-1.90;9.00
11009;DHT22;5557;51.670;7.788;2023-02-28T01:55:28;-1.90;10.80
11009;DHT22;5557;51.670;7.788;2023-02-28T01:57:59;-1.80;12.30
11009;DHT22;5557;51.670;7.788;2023-02-28T02:00:27;-1.70;11.50
11009;DHT22;5557;51.670;7.788;2023-02-28T02:02:58;-1.60;10.30
11009;DHT22;5557;51.670;7.788;2023-02-28T02:05:28;-1.60;10.10
11009;DHT22;5557;51.670;7.788;2023-02-28T02:08:02;-1.50;9.30
11009;DHT22;5557;51.670;7.788;2023-02-28T02:10:52;-1.50;8.50
11009;DHT22;5557;51.670;7.788;2023-02-28T02:27:16;-1.60;7.30
11009;DHT22;5557;51.670;7.788;2023-02-28T02:36:07;-1.30;5.40
11009;DHT22;5557;51.670;7.788;2023-02-28T02:42:09;-1.20;2.50
11009;DHT22;5557;51.670;7.788;2023-02-28T02:44:45;-1.20;2.50
11009;DHT22;5557;51.670;7.788;2023-02-28T02:47:17;-1.30;2.50
11009;DHT22;5557;51.670;7.788;2023-02-28T02:49:52;-1.40;2.90
11009;DHT22;5557;51.670;7.788;2023-02-28T02:52:25;-1.40;4.10
11009;DHT22;5557;51.670;7.788;2023-02-28T02:54:57;-1.40;4.70
11009;DHT22;5557;51.670;7.788;2023-02-28T02:57:38;-1.50;4.70
11009;DHT22;5557;51.670;7.788;2023-02-28T03:00:09;-1.50;5.10
11009;DHT22;5557;51.670;7.788;2023-02-28T03:02:38;-1.50;5.00
11009;DHT22;5557;51.670;7.788;2023-02-28T03:05:12;-1.50;4.60
11009;DHT22;5557;51.670;7.788;2023-02-28T03:07:41;-1.50;4.90
11009;DHT22;5557;51.670;7.788;2023-02-28T03:10:31;-1.50;5.00
11009;DHT22;5557;51.670;7.788;2023-02-28T03:13:36;-1.50;5.10
11009;DHT22;5557;51.670;7.788;2023-02-28T03:22:47;-1.40;1.80
11009;DHT22;5557;51.670;7.788;2023-02-28T03:25:47;-1.40;1.00
11009;DHT22;5557;51.670;7.788;2023-02-28T03:31:36;-1.40;1.00
11009;DHT22;5557;51.670;7.788;2023-02-28T03:34:06;-1.60;1.00
11009;DHT22;5557;51.670;7.788;2023-02-28T03:36:40;-1.60;1.60
11009;DHT22;5557;51.670;7.788;2023-02-28T03:39:27;-1.60;2.30
11009;DHT22;5557;51.670;7.788;2023-02-28T03:42:21;-1.60;2.00
11009;DHT22;5557;51.670;7.788;2023-02-28T03:45:10;-1.60;2.10
11009;DHT22;5557;51.670;7.788;2023-02-28T03:47:49;-1.60;1.30
11009;DHT22;5557;51.670;7.788;2023-02-28T03:50:36;-1.60;2.30
11009;DHT22;5557;51.670;7.788;2023-02-28T03:53:19;-1.70;2.20
11009;DHT22;5557;51.670;7.788;2023-02-28T03:55:56;-1.70;3.10
11009;DHT22;5557;51.670;7.788;2023-02-28T03:58:53;-1.70;2.30
11009;DHT22;5557;51.670;7.788;2023-02-28T04:03:53;-1.70;2.20
11009;DHT22;5557;51.670;7.788;2023-02-28T04:06:22;-1.80;2.90
11009;DHT22;5557;51.670;7.788;2023-02-28T04:08:49;-1.90;3.60
11009;DHT22;5557;51.670;7.788;2023-02-28T04:11:34;-2.00;3.90
11009;DHT22;5557;51.670;7.788;2023-02-28T04:14:03;-2.00;5.50
11009;DHT22;5557;51.670;7.788;2023-02-28T04:16:31;-2.10;6.40
11009;DHT22;5557;51.670;7.788;2023-02-28T04:19:03;-2.10;7.00
11009;DHT22;5557;51.670;7.788;2023-02-28T04:21:38;-2.10;7.50
11009;DHT22;5557;51.670;7.788;2023-02-28T04:24:07;-2.10;8.30
11009;DHT22;5557;51.670;7.788;2023-02-28T04:26:36;-2.10;7.90
11009;DHT22;5557;51.670;7.788;2023-02-28T04:29:05;-2.20;8.70
11009;DHT22;5557;51.670;7.788;2023-02-28T04:31:32;-2.10;9.40
11009;DHT22;5557;51.670;7.788;2023-02-28T04:34:00;-2.10;9.00
11009;DHT22;5557;51.670;7.788;2023-02-28T04:36:27;-2.10;9.40
11009;DHT22;5557;51.670;7.788;2023-02-28T04:38:54;-2.10;8.20
11009;DHT22;5557;51.670;7.788;2023-02-28T04:41:21;-2.10;7.60
11009;DHT22;5557;51.670;7.788;2023-02-28T04:43:51;-2.10;7.90
11009;DHT22;5557;51.670;7.788;2023-02-28T04:46:18;-2.10;8.20
11009;DHT22;5557;51.670;7.788;2023-02-28T04:48:45;-2.00;7.60
11009;DHT22;5557;51.670;7.788;2023-02-28T04:51:14;-2.10;7.30
11009;DHT22;5557;51.670;7.788;2023-02-28T04:53:42;-2.20;7.90
11009;DHT22;5557;51.670;7.788;2023-02-28T04:56:14;-2.20;8.20
11009;DHT22;5557;51.670;7.788;2023-02-28T04:58:41;-2.20;8.70
11009;DHT22;5557;51.670;7.788;2023-02-28T05:01:29;-2.20;8.80
11009;DHT22;5557;51.670;7.788;2023-02-28T05:03:59;-2.20;8.70
11009;DHT22;5557;51.670;7.788;2023-02-28T05:06:27;-2.20;9.10
11009;DHT22;5557;51.670;7.788;2023-02-28T05:08:55;-2.20;9.10
11009;DHT22;5557;51.670;7.788;2023-02-28T05:11:30;-2.20;9.10
11009;DHT22;5557;51.670;7.788;2023-02-28T05:14:02;-2.20;9.00
11009;DHT22;5557;51.670;7.788;2023-02-28T05:16:31;-2.30;9.70
11009;DHT22;5557;51.670;7.788;2023-02-28T05:18:58;-2.30;10.50
11009;DHT22;5557;51.670;7.788;2023-02-28T05:21:36;-2.50;10.40
11009;DHT22;5557;51.670;7.788;2023-02-28T05:24:08;-2.50;11.70
11009;DHT22;5557;51.670;7.788;2023-02-28T05:26:45;-2.60;12.90
11009;DHT22;5557;51.670;7.788;2023-02-28T05:29:12;-2.60;13.80
11009;DHT22;5557;51.670;7.788;2023-02-28T05:31:38;-2.70;13.60
11009;DHT22;5557;51.670;7.788;2023-02-28T05:34:06;-2.80;14.00
11009;DHT22;5557;51.670;7.788;2023-02-28T05:36:33;-2.80;14.90
11009;DHT22;5557;51.670;7.788;2023-02-28T05:39:00;-2.80;17.40
11009;DHT22;5557;51.670;7.788;2023-02-28T05:41:27;-2.90;16.70
11009;DHT22;5557;51.670;7.788;2023-02-28T05:43:55;-3.00;17.60
11009;DHT22;5557;51.670;7.788;2023-02-28T05:46:22;-3.00;18.60
11009;DHT22;5557;51.670;7.788;2023-02-28T05:48:49;-3.00;22.00
11009;DHT22;5557;51.670;7.788;2023-02-28T05:51:17;-2.90;21.80
11009;DHT22;5557;51.670;7.788;2023-02-28T05:53:44;-2.90;20.90
11009;DHT22;5557;51.670;7.788;2023-02-28T05:56:11;-2.90;20.50
11009;DHT22;5557;51.670;7.788;2023-02-28T05:58:38;-3.00;20.10
11009;DHT22;5557;51.670;7.788;2023-02-28T06:04:17;-2.90;21.00
11009;DHT22;5557;51.670;7.788;2023-02-28T06:06:57;-2.90;21.50
11009;DHT22;5557;51.670;7.788;2023-02-28T06:09:24;-2.90;22.00
11009;DHT22;5557;51.670;7.788;2023-02-28T06:11:51;-2.90;21.30
11009;DHT22;5557;51.670;7.788;2023-02-28T06:14:19;-2.90;21.80
11009;DHT22;5557;51.670;7.788;2023-02-28T06:16:47;-2.90;22.10
11009;DHT22;5557;51.670;7.788;2023-02-28T06:19:14;-2.90;21.10
11009;DHT22;5557;51.670;7.788;2023-02-28T06:21:42;-2.90;21.10
11009;DHT22;5557;51.670;7.788;2023-02-28T06:24:09;-2.90;21.00
11009;DHT22;5557;51.670;7.788;2023-02-28T06:26:37;-2.90;21.70
11009;DHT22;5557;51.670;7.788;2023-02-28T06:29:04;-2.90;21.30
11009;DHT22;5557;51.670;7.788;2023-02-28T06:31:31;-2.90;22.10
11009;DHT22;5557;51.670;7.788;2023-02-28T06:33:58;-3.00;21.00
11009;DHT22;5557;51.670;7.788;2023-02-28T06:36:25;-3.10;22.70
11009;DHT22;5557;51.670;7.788;2023-02-28T06:38:52;-3.00;24.60
11009;DHT22;5557;51.670;7.788;2023-02-28T06:41:26;-2.90;25.50
11009;DHT22;5557;51.670;7.788;2023-02-28T06:43:54;-2.80;24.80
11009;DHT22;5557;51.670;7.788;2023-02-28T06:46:21;-2.80;24.00
11009;DHT22;5557;51.670;7.788;2023-02-28T06:48:48;-2.70;23.00
11009;DHT22;5557;51.670;7.788;2023-02-28T06:51:18;-2.70;22.40
11009;DHT22;5557;51.670;7.788;2023-02-28T06:53:46;-2.60;21.80
11009;DHT22;5557;51.670;7.788;2023-02-28T06:56:15;-2.60;21.10
11009;DHT22;5557;51.670;7.788;2023-02-28T06:58:46;-2.50;20.80
11009;DHT22;5557;51.670;7.788;2023-02-28T07:01:13;-2.50;20.70
11009;DHT22;5557;51.670;7.788;2023-02-28T07:03:40;-2.40;20.00
11009;DHT22;5557;51.670;7.788;2023-02-28T07:06:07;-2.30;20.30
11009;DHT22;5557;51.670;7.788;2023-02-28T07:08:35;-2.30;19.30
11009;DHT22;5557;51.670;7.788;2023-02-28T07:11:02;-2.20;19.10
11009;DHT22;5557;51.670;7.788;2023-02-28T07:13:30;-2.20;19.00
11009;DHT22;5557;51.670;7.788;2023-02-28T07:16:02;-2.20;19.10
11009;DHT22;5557;51.670;7.788;2023-02-28T07:18:30;-2.10;19.20
11009;DHT22;5557;51.670;7.788;2023-02-28T07:20:57;-2.00;19.20
11009;DHT22;5557;51.670;7.788;2023-02-28T07:23:24;-1.80;23.00
11009;DHT22;5557;51.670;7.788;2023-02-28T07:25:51;-0.80;24.60
11009;DHT22;5557;51.670;7.788;2023-02-28T07:28:18;0.40;14.60
11009;DHT22;5557;51.670;7.788;2023-02-28T07:30:45;1.40;3.00
11009;DHT22;5557;51.670;7.788;2023-02-28T07:33:12;2.10;1.00
11009;DHT22;5557;51.670;7.788;2023-02-28T07:35:40;2.80;1.00
11009;DHT22;5557;51.670;7.788;2023-02-28T07:38:07;3.40;1.00
11009;DHT22;5557;51.670;7.788;2023-02-28T07:40:35;3.90;1.00
11009;DHT22;5557;51.670;7.788;2023-02-28T07:43:03;4.30;1.00
11009;DHT22;5557;51.670;7.788;2023-02-28T07:45:30;5.20;1.00
11009;DHT22;5557;51.670;7.788;2023-02-28T07:47:59;5.80;1.00
11009;DHT22;5557;51.670;7.788;2023-02-28T07:50:26;6.10;1.00
11009;DHT22;5557;51.670;7.788;2023-02-28T07:53:00;6.00;1.00
11009;DHT22;5557;51.670;7.788;2023-02-28T07:55:27;6.00;1.00
11009;DHT22;5557;51.670;7.788;2023-02-28T07:57:54;5.80;1.00
11009;DHT22;5557;51.670;7.788;2023-02-28T08:00:22;6.30;1.00
11009;DHT22;5557;51.670;7.788;2023-02-28T08:02:49;7.20;1.00
11009;DHT22;5557;51.670;7.788;2023-02-28T08:05:16;7.60;1.00
11009;DHT22;5557;51.670;7.788;2023-02-28T08:07:49;8.00;1.00
11009;DHT22;5557;51.670;7.788;2023-02-28T08:10:16;8.60;1.00
11009;DHT22;5557;51.670;7.788;2023-02-28T08:12:43;8.90;1.00
11009;DHT22;5557;51.670;7.788;2023-02-28T08:15:10;8.70;1.00
11009;DHT22;5557;51.670;7.788;2023-02-28T08:17:37;8.80;1.00
11009;DHT22;5557;51.670;7.788;2023-02-28T08:20:04;8.50;1.00
11009;DHT22;5557;51.670;7.788;2023-02-28T08:22:31;8.20;1.00
11009;DHT22;5557;51.670;7.788;2023-02-28T08:24:58;7.90;1.00
11009;DHT22;5557;51.670;7.788;2023-02-28T08:27:25;8.00;1.00
11009;DHT22;5557;51.670;7.788;2023-02-28T08:29:52;8.00;1.00
11009;DHT22;5557;51.670;7.788;2023-02-28T08:32:19;7.80;1.00
11009;DHT22;5557;51.670;7.788;2023-02-28T08:34:55;7.60;1.00
11009;DHT22;5557;51.670;7.788;2023-02-28T08:37:23;7.80;1.00
11009;DHT22;5557;51.670;7.788;2023-02-28T08:39:50;8.10;1.00
11009;DHT22;5557;51.670;7.788;2023-02-28T08:42:20;8.30;1.00
11009;DHT22;5557;51.670;7.788;2023-02-28T08:44:47;8.20;1.00
11009;DHT22;5557;51.670;7.788;2023-02-28T08:47:14;8.40;1.00
11009;DHT22;5557;51.670;7.788;2023-02-28T08:49:41;8.50;1.00
11009;DHT22;5557;51.670;7.788;2023-02-28T08:52:08;9.00;1.00
11009;DHT22;5557;51.670;7.788;2023-02-28T08:54:35;9.00;1.00
11009;DHT22;5557;51.670;7.788;2023-02-28T08:57:03;8.50;1.00
11009;DHT22;5557;51.670;7.788;2023-02-28T08:59:30;8.50;1.00
11009;DHT22;5557;51.670;7.788;2023-02-28T09:01:57;8.10;1.00
11009;DHT22;5557;51.670;7.788;2023-02-28T09:04:23;8.20;1.00
11009;DHT22;5557;51.670;7.788;2023-02-28T09:06:51;8.10;1.00
11009;DHT22;5557;51.670;7.788;2023-02-28T09:09:18;7.80;1.00
11009;DHT22;5557;51.670;7.788;2023-02-28T09:11:45;7.80;1.00
11009;DHT22;5557;51.670;7.788;2023-02-28T09:14:12;7.30;1.00
11009;DHT22;5557;51.670;7.788;2023-02-28T09:16:39;7.40;1.00
11009;DHT22;5557;51.670;7.788;2023-02-28T09:19:06;7.70;1.00
11009;DHT22;5557;51.670;7.788;2023-02-28T09:21:32;7.60;1.00
11009;DHT22;5557;51.670;7.788;2023-02-28T09:23:59;7.70;1.00
11009;DHT22;5557;51.670;7.788;2023-02-28T09:26:27;7.80;1.00
11009;DHT22;5557;51.670;7.788;2023-02-28T09:29:08;7.10;1.00
11009;DHT22;5557;51.670;7.788;2023-02-28T09:31:35;7.20;1.00
11009;DHT22;5557;51.670;7.788;2023-02-28T09:34:04;7.20;1.00
11009;DHT22;5557;51.670;7.788;2023-02-28T09:36:31;6.50;1.00
11009;DHT22;5557;51.670;7.788;2023-02-28T09:39:10;6.50;1.00
11009;DHT22;5557;51.670;7.788;2023-02-28T09:41:43;5.80;1.00
11009;DHT22;5557;51.670;7.788;2023-02-28T09:44:31;5.40;1.00
11009;DHT22;5557;51.670;7.788;2023-02-28T09:47:13;5.80;1.00
11009;DHT22;5557;51.670;7.788;2023-02-28T09:49:43;5.50;1.00
11009;DHT22;5557;51.670;7.788;2023-02-28T09:52:17;4.50;1.00
11009;DHT22;5557;51.670;7.788;2023-02-28T09:54:46;4.20;1.00
11009;DHT22;5557;51.670;7.788;2023-02-28T09:57:38;4.00;1.00
11009;DHT22;5557;51.670;7.788;2023-02-28T10:00:30;3.90;1.00
11009;DHT22;5557;51.670;7.788;2023-02-28T10:03:18;4.30;1.00
11009;DHT22;5557;51.670;7.788;2023-02-28T10:06:39;4.50;1.00
11009;DHT22;5557;51.670;7.788;2023-02-28T10:09:09;5.10;1.00
11009;DHT22;5557;51.670;7.788;2023-02-28T10:11:40;5.70;1.00
11009;DHT22;5557;51.670;7.788;2023-02-28T10:14:18;6.00;1.00
11009;DHT22;5557;51.670;7.788;2023-02-28T10:20:05;5.80;1.00
11009;DHT22;5557;51.670;7.788;2023-02-28T10:23:09;5.40;1.00
11009;DHT22;5557;51.670;7.788;2023-02-28T10:25:38;5.20;1.00
11009;DHT22;5557;51.670;7.788;2023-02-28T10:28:11;5.30;1.00
11009;DHT22;5557;51.670;7.788;2023-02-28T10:30:45;5.40;1.00
11009;DHT22;5557;51.670;7.788;2023-02-28T10:35:46;5.70;1.00
11009;DHT22;5557;51.670;7.788;2023-02-28T10:38:20;5.60;1.00
11009;DHT22;5557;51.670;7.788;2023-02-28T10:40:48;5.60;1.00
11009;DHT22;5557;51.670;7.788;2023-02-28T10:43:20;5.60;1.00
11009;DHT22;5557;51.670;7.788;2023-02-28T10:46:20;5.70;1.00
11009;DHT22;5557;51.670;7.788;2023-02-28T10:49:06;5.80;1.00
11009;DHT22;5557;51.670;7.788;2023-02-28T10:51:40;5.70;1.00
11009;DHT22;5557;51.670;7.788;2023-02-28T10:54:34;5.80;1.00
11009;DHT22;5557;51.670;7.788;2023-02-28T10:59:33;5.30;1.00
11009;DHT22;5557;51.670;7.788;2023-02-28T11:02:00;5.50;1.00
11009;DHT22;5557;51.670;7.788;2023-02-28T11:04:36;5.20;1.00
11009;DHT22;5557;51.670;7.788;2023-02-28T11:07:18;4.90;1.00
11009;DHT22;5557;51.670;7.788;2023-02-28T11:09:51;4.90;1.00
11009;DHT22;5557;51.670;7.788;2023-02-28T11:12:36;4.60;1.00
11009;DHT22;5557;51.670;7.788;2023-02-28T11:15:26;4.50;1.00
11009;DHT22;5557;51.670;7.788;2023-02-28T11:18:21;4.60;1.00
11009;DHT22;5557;51.670;7.788;2023-02-28T11:20:50;4.50;1.00
11009;DHT22;5557;51.670;7.788;2023-02-28T11:23:20;4.30;1.00
11009;DHT22;5557;51.670;7.788;2023-02-28T11:25:53;4.20;1.00
11009;DHT22;5557;51.670;7.788;2023-02-28T11:28:40;4.10;1.00
11009;DHT22;5557;51.670;7.788;2023-02-28T11:31:17;4.10;1.00
11009;DHT22;5557;51.670;7.788;2023-02-28T11:33:53;4.20;1.00
11009;DHT22;5557;51.670;7.788;2023-02-28T11:36:28;4.40;1.00
11009;DHT22;5557;51.670;7.788;2023-02-28T11:38:59;4.50;1.00
11009;DHT22;5557;51.670;7.788;2023-02-28T11:41:54;4.60;1.00
11009;DHT22;5557;51.670;7.788;2023-02-28T11:44:48;4.70;1.00
11009;DHT22;5557;51.670;7.788;2023-02-28T11:47:44;4.80;1.00
11009;DHT22;5557;51.670;7.788;2023-02-28T11:50:53;4.70;1.00
11009;DHT22;5557;51.670;7.788;2023-02-28T11:56:41;4.50;1.00
11009;DHT22;5557;51.670;7.788;2023-02-28T12:02:38;4.10;1.00
11009;DHT22;5557;51.670;7.788;2023-02-28T12:05:43;4.20;1.00
11009;DHT22;5557;51.670;7.788;2023-02-28T12:08:49;4.20;1.00
11009;DHT22;5557;51.670;7.788;2023-02-28T12:17:26;4.20;1.00
11009;DHT22;5557;51.670;7.788;2023-02-28T12:20:14;4.20;1.00
11009;DHT22;5557;51.670;7.788;2023-02-28T12:26:10;4.40;1.00
11009;DHT22;5557;51.670;7.788;2023-02-28T12:28:47;4.70;1.00
11009;DHT22;5557;51.670;7.788;2023-02-28T12:31:38;5.00;1.00
11009;DHT22;5557;51.670;7.788;2023-02-28T12:34:11;4.80;1.00
11009;DHT22;5557;51.670;7.788;2023-02-28T12:36:39;4.60;1.00
11009;DHT22;5557;51.670;7.788;2023-02-28T12:39:26;4.60;1.00
11009;DHT22;5557;51.670;7.788;2023-02-28T12:42:05;4.40;1.00
11009;DHT22;5557;51.670;7.788;2023-02-28T12:44:44;4.20;1.00
11009;DHT22;5557;51.670;7.788;2023-02-28T12:47:16;4.20;1.00
11009;DHT22;5557;51.670;7.788;2023-02-28T13:04:24;4.30;1.00
11009;DHT22;5557;51.670;7.788;2023-02-28T13:10:00;4.40;1.00
11009;DHT22;5557;51.670;7.788;2023-02-28T13:12:27;4.50;1.00
11009;DHT22;5557;51.670;7.788;2023-02-28T13:15:22;4.50;1.00
11009;DHT22;5557;51.670;7.788;2023-02-28T13:17:58;4.40;1.00
11009;DHT22;5557;51.670;7.788;2023-02-28T13:20:35;4.50;1.00
11009;DHT22;5557;51.670;7.788;2023-02-28T13:23:03;4.60;1.00
11009;DHT22;5557;51.670;7.788;2023-02-28T13:25:51;4.60;1.00
11009;DHT22;5557;51.670;7.788;2023-02-28T13:29:02;4.60;1.00
11009;DHT22;5557;51.670;7.788;2023-02-28T13:31:31;4.70;1.00
11009;DHT22;5557;51.670;7.788;2023-02-28T13:34:14;4.80;1.00
11009;DHT22;5557;51.670;7.788;2023-02-28T13:36:41;4.80;1.00
11009;DHT22;5557;51.670;7.788;2023-02-28T13:40:29;4.60;1.00
11009;DHT22;5557;51.670;7.788;2023-02-28T13:42:55;4.80;1.00
11009;DHT22;5557;51.670;7.788;2023-02-28T13:45:28;5.00;1.00
11009;DHT22;5557;51.670;7.788;2023-02-28T13:48:03;4.90;1.00
11009;DHT22;5557;51.670;7.788;2023-02-28T13:50:34;5.00;1.00
11009;DHT22;5557;51.670;7.788;2023-02-28T13:56:44;4.90;1.00
11009;DHT22;5557;51.670;7.788;2023-02-28T13:59:23;4.60;1.00
11009;DHT22;5557;51.670;7.788;2023-02-28T14:02:09;4.60;1.00
11009;DHT22;5557;51.670;7.788;2023-02-28T14:05:13;4.50;1.00
11009;DHT22;5557;51.670;7.788;2023-02-28T14:07:46;4.60;1.00
11009;DHT22;5557;51.670;7.788;2023-02-28T14:10:31;4.60;1.00
11009;DHT22;5557;51.670;7.788;2023-02-28T14:13:37;4.60;1.00
11009;DHT22;5557;51.670;7.788;2023-02-28T14:16:06;4.70;1.00
11009;DHT22;5557;51.670;7.788;2023-02-28T14:18:37;4.80;1.00
11009;DHT22;5557;51.670;7.788;2023-02-28T14:21:29;5.10;1.00
11009;DHT22;5557;51.670;7.788;2023-02-28T14:27:47;4.80;1.00
11009;DHT22;5557;51.670;7.788;2023-02-28T14:36:39;4.50;1.00
11009;DHT22;5557;51.670;7.788;2023-02-28T14:39:19;4.50;1.00
11009;DHT22;5557;51.670;7.788;2023-02-28T14:41:47;4.50;1.00
11009;DHT22;5557;51.670;7.788;2023-02-28T14:44:26;4.50;1.00
11009;DHT22;5557;51.670;7.788;2023-02-28T14:46:59;4.60;1.00
11009;DHT22;5557;51.670;7.788;2023-02-28T14:49:42;4.60;1.00
11009;DHT22;5557;51.670;7.788;2023-02-28T14:52:20;4.60;1.00
11009;DHT22;5557;51.670;7.788;2023-02-28T14:54:53;4.60;1.00
11009;DHT22;5557;51.670;7.788;2023-02-28T14:57:29;4.70;1.00
11009;DHT22;5557;51.670;7.788;2023-02-28T15:00:26;4.60;1.00
11009;DHT22;5557;51.670;7.788;2023-02-28T15:02:55;4.60;1.00
11009;DHT22;5557;51.670;7.788;2023-02-28T15:05:33;4.60;1.00
11009;DHT22;5557;51.670;7.788;2023-02-28T15:13:20;4.50;1.00
11009;DHT22;5557;51.670;7.788;2023-02-28T15:15:57;4.50;1.00
11009;DHT22;5557;51.670;7.788;2023-02-28T15:21:02;4.60;1.00
11009;DHT22;5557;51.670;7.788;2023-02-28T15:23:30;4.60;1.00
11009;DHT22;5557;51.670;7.788;2023-02-28T15:25:58;4.60;1.00
11009;DHT22;5557;51.670;7.788;2023-02-28T15:28:27;4.70;1.00
11009;DHT22;5557;51.670;7.788;2023-02-28T15:31:00;4.70;1.00
11009;DHT22;5557;51.670;7.788;2023-02-28T15:33:30;4.70;1.00
11009;DHT22;5557;51.670;7.788;2023-02-28T15:36:17;4.80;1.00
11009;DHT22;5557;51.670;7.788;2023-02-28T15:38:51;4.80;1.00
11009;DHT22;5557;51.670;7.788;2023-02-28T15:41:36;4.80;1.00
11009;DHT22;5557;51.670;7.788;2023-02-28T15:44:30;4.70;1.00
11009;DHT22;5557;51.670;7.788;2023-02-28T15:47:18;4.60;1.00
11009;DHT22;5557;51.670;7.788;2023-02-28T15:49:52;4.60;1.00
11009;DHT22;5557;51.670;7.788;2023-02-28T15:52:28;4.60;1.00
11009;DHT22;5557;51.670;7.788;2023-02-28T15:54:58;4.50;1.00
11009;DHT22;5557;51.670;7.788;2023-02-28T15:57:28;4.60;1.00
11009;DHT22;5557;51.670;7.788;2023-02-28T16:00:10;4.60;1.00
11009;DHT22;5557;51.670;7.788;2023-02-28T16:02:42;4.50;1.00
11009;DHT22;5557;51.670;7.788;2023-02-28T16:05:30;4.60;1.00
11009;DHT22;5557;51.670;7.788;2023-02-28T16:08:13;4.50;1.00
11009;DHT22;5557;51.670;7.788;2023-02-28T16:10:41;4.50;1.00
11009;DHT22;5557;51.670;7.788;2023-02-28T16:13:11;4.50;1.00
11009;DHT22;5557;51.670;7.788;2023-02-28T16:15:42;4.50;1.00
11009;DHT22;5557;51.670;7.788;2023-02-28T16:18:11;4.50;1.00
11009;DHT22;5557;51.670;7.788;2023-02-28T16:20:39;4.50;1.00
11009;DHT22;5557;51.670;7.788;2023-02-28T16:23:06;4.50;1.00
11009;DHT22;5557;51.670;7.788;2023-02-28T16:25:36;4.50;1.00
11009;DHT22;5557;51.670;7.788;2023-02-28T16:28:05;4.40;1.00
11009;DHT22;5557;51.670;7.788;2023-02-28T16:30:34;4.40;1.00
11009;DHT22;5557;51.670;7.788;2023-02-28T16:33:01;4.30;1.00
11009;DHT22;5557;51.670;7.788;2023-02-28T16:35:28;4.40;1.00
11009;DHT22;5557;51.670;7.788;2023-02-28T16:37:55;4.30;1.00
11009;DHT22;5557;51.670;7.788;2023-02-28T16:40:24;4.30;1.00
11009;DHT22;5557;51.670;7.788;2023-02-28T16:42:55;4.30;1.00
11009;DHT22;5557;51.670;7.788;2023-02-28T16:45:26;4.30;1.00
11009;DHT22;5557;51.670;7.788;2023-02-28T16:47:54;4.20;1.00
11009;DHT22;5557;51.670;7.788;2023-02-28T16:50:27;4.10;1.00
11009;DHT22;5557;51.670;7.788;2023-02-28T16:52:55;4.10;1.00
11009;DHT22;5557;51.670;7.788;2023-02-28T16:55:23;4.10;1.00
11009;DHT22;5557;51.670;7.788;2023-02-28T16:57:53;4.10;1.00
11009;DHT22;5557;51.670;7.788;2023-02-28T17:00:21;4.00;1.00
11009;DHT22;5557;51.670;7.788;2023-02-28T17:02:49;3.90;1.00
11009;DHT22;5557;51.670;7.788;2023-02-28T17:05:19;3.80;1.00
11009;DHT22;5557;51.670;7.788;2023-02-28T17:07:47;3.80;1.00
11009;DHT22;5557;51.670;7.788;2023-02-28T17:10:20;3.80;1.00
11009;DHT22;5557;51.670;7.788;2023-02-28T17:12:48;3.70;1.00
11009;DHT22;5557;51.670;7.788;2023-02-28T17:15:16;3.70;1.00
11009;DHT22;5557;51.670;7.788;2023-02-28T17:17:45;3.60;1.00
11009;DHT22;5557;51.670;7.788;2023-02-28T17:20:17;3.60;1.00
11009;DHT22;5557;51.670;7.788;2023-02-28T17:22:44;3.50;1.00
11009;DHT22;5557;51.670;7.788;2023-02-28T17:25:11;3.40;1.00
11009;DHT22;5557;51.670;7.788;2023-02-28T17:27:39;3.30;1.00
11009;DHT22;5557;51.670;7.788;2023-02-28T17:30:33;3.20;1.00
11009;DHT22;5557;51.670;7.788;2023-02-28T17:33:00;3.20;1.00
11009;DHT22;5557;51.670;7.788;2023-02-28T17:35:27;3.10;1.00
11009;DHT22;5557;51.670;7.788;2023-02-28T17:37:54;3.10;1.00
11009;DHT22;5557;51.670;7.788;2023-02-28T17:40:23;3.10;1.00
11009;DHT22;5557;51.670;7.788;2023-02-28T17:42:50;3.00;1.00
11009;DHT22;5557;51.670;7.788;2023-02-28T17:45:19;2.90;1.00
11009;DHT22;5557;51.670;7.788;2023-02-28T17:47:48;2.80;1.00
11009;DHT22;5557;51.670;7.788;2023-02-28T17:50:20;2.70;1.00
11009;DHT22;5557;51.670;7.788;2023-02-28T17:52:48;2.60;1.00
11009;DHT22;5557;51.670;7.788;2023-02-28T17:55:17;2.60;1.00
11009;DHT22;5557;51.670;7.788;2023-02-28T17:57:45;2.60;1.00
11009;DHT22;5557;51.670;7.788;2023-02-28T18:00:14;2.60;1.00
11009;DHT22;5557;51.670;7.788;2023-02-28T18:02:43;2.50;1.00
11009;DHT22;5557;51.670;7.788;2023-02-28T18:05:10;2.50;1.00
11009;DHT22;5557;51.670;7.788;2023-02-28T18:07:38;2.50;1.00
11009;DHT22;5557;51.670;7.788;2023-02-28T18:10:06;2.40;1.00
11009;DHT22;5557;51.670;7.788;2023-02-28T18:12:33;2.40;1.00
11009;DHT22;5557;51.670;7.788;2023-02-28T18:15:00;2.30;1.00
11009;DHT22;5557;51.670;7.788;2023-02-28T18:17:27;2.20;1.00
11009;DHT22;5557;51.670;7.788;2023-02-28T18:19:54;2.20;1.00
11009;DHT22;5557;51.670;7.788;2023-02-28T18:22:21;2.10;1.00
11009;DHT22;5557;51.670;7.788;2023-02-28T18:24:48;2.20;1.00
11009;DHT22;5557;51.670;7.788;2023-02-28T18:27:15;2.10;1.00
11009;DHT22;5557;51.670;7.788;2023-02-28T18:29:42;2.10;1.00